createdAt,value
2018-12-14T00:00:29.752Z,39.20
2018-12-14T00:02:57.957Z,33.60
2018-12-14T00:05:26.160Z,34.23
2018-12-14T00:07:54.272Z,36.00
2018-12-14T00:10:22.386Z,35.10
2018-12-14T00:12:50.578Z,34.60
2018-12-14T00:15:18.821Z,35.37
2018-12-14T00:17:47.005Z,35.13
2018-12-14T00:20:15.246Z,37.60
2018-12-14T00:22:43.509Z,34.00
2018-12-14T00:25:11.803Z,34.77
2018-12-14T00:27:40.090Z,32.00
2018-12-14T00:30:08.884Z,32.97
2018-12-14T00:32:37.061Z,33.37
2018-12-14T00:35:05.882Z,35.30
2018-12-14T00:37:34.202Z,31.90
2018-12-14T00:40:02.362Z,34.33
2018-12-14T00:42:30.474Z,38.63
2018-12-14T00:44:58.586Z,33.83
2018-12-14T00:47:26.754Z,34.07
2018-12-14T00:49:54.928Z,31.80
2018-12-14T00:52:23.108Z,32.20
2018-12-14T00:54:51.298Z,36.17
2018-12-14T00:57:19.485Z,31.97
2018-12-14T00:59:47.599Z,38.67
2018-12-14T01:02:21.323Z,31.10
2018-12-14T01:04:49.454Z,35.20
2018-12-14T01:07:17.541Z,37.10
2018-12-14T01:09:45.793Z,37.40
2018-12-14T01:12:13.919Z,37.00
2018-12-14T01:14:42.191Z,34.03
2018-12-14T01:17:10.348Z,37.13
2018-12-14T01:19:38.581Z,36.30
2018-12-14T01:22:06.661Z,36.07
2018-12-14T01:24:34.850Z,33.00
2018-12-14T01:27:03.075Z,36.53
2018-12-14T01:29:31.177Z,34.03
2018-12-14T01:31:59.317Z,35.03
2018-12-14T01:34:27.475Z,37.40
2018-12-14T01:36:55.726Z,37.50
2018-12-14T01:39:23.805Z,36.67
2018-12-14T01:41:51.978Z,40.37
2018-12-14T01:44:20.215Z,38.50
2018-12-14T01:46:48.434Z,38.67
2018-12-14T01:49:16.676Z,35.10
2018-12-14T01:51:44.815Z,35.93
2018-12-14T01:54:13.036Z,37.30
2018-12-14T01:56:41.204Z,36.83
2018-12-14T01:59:09.302Z,41.40
2018-12-14T02:01:37.400Z,29.33
2018-12-14T02:04:05.552Z,38.00
2018-12-14T02:06:33.716Z,37.63
2018-12-14T02:09:01.889Z,40.07
2018-12-14T02:11:30.005Z,40.63
2018-12-14T02:13:58.240Z,35.60
2018-12-14T02:16:26.485Z,34.80
2018-12-14T02:18:54.689Z,33.70
2018-12-14T02:21:22.777Z,36.70
2018-12-14T02:23:50.928Z,35.40
2018-12-14T02:26:19.101Z,35.40
2018-12-14T02:28:47.252Z,38.17
2018-12-14T02:31:15.416Z,39.47
2018-12-14T02:33:43.568Z,33.23
2018-12-14T02:36:11.733Z,33.10
2018-12-14T02:38:39.966Z,37.67
2018-12-14T02:41:08.170Z,37.20
2018-12-14T02:43:36.570Z,38.17
2018-12-14T02:46:04.925Z,38.10
2018-12-14T02:48:33.118Z,40.50
2018-12-14T02:51:01.249Z,36.50
2018-12-14T02:53:29.380Z,45.70
2018-12-14T02:55:57.642Z,40.80
2018-12-14T02:58:25.842Z,39.73
2018-12-14T03:00:54.065Z,36.83
2018-12-14T03:03:22.216Z,35.00
2018-12-14T03:05:50.478Z,34.23
2018-12-14T03:08:18.759Z,35.33
2018-12-14T03:10:46.955Z,36.07
2018-12-14T03:13:15.171Z,33.50
2018-12-14T03:15:43.390Z,36.63
2018-12-14T03:18:11.584Z,36.97
2018-12-14T03:20:39.879Z,34.67
2018-12-14T03:23:08.026Z,36.33
2018-12-14T03:25:36.169Z,31.23
2018-12-14T03:28:04.398Z,36.30
2018-12-14T03:30:32.539Z,33.93
2018-12-14T03:33:00.838Z,30.93
2018-12-14T03:35:28.948Z,36.03
2018-12-14T03:37:57.112Z,35.70
2018-12-14T03:40:25.245Z,34.67
2018-12-14T03:42:53.379Z,35.03
2018-12-14T03:45:21.578Z,32.47
2018-12-14T03:47:49.707Z,32.47
2018-12-14T03:50:17.911Z,29.80
2018-12-14T03:52:46.032Z,33.47
2018-12-14T03:55:14.156Z,38.07
2018-12-14T03:57:42.376Z,33.60
2018-12-14T04:00:11.034Z,33.37
2018-12-14T04:02:39.167Z,35.57
2018-12-14T04:05:07.433Z,37.17
2018-12-14T04:07:35.575Z,32.63
2018-12-14T04:10:04.499Z,38.20
2018-12-14T04:12:32.729Z,39.03
2018-12-14T04:15:00.844Z,31.60
2018-12-14T04:17:28.973Z,38.67
2018-12-14T04:19:57.092Z,36.63
2018-12-14T04:22:25.284Z,35.40
2018-12-14T04:24:54.508Z,34.37
2018-12-14T04:27:22.825Z,37.47
2018-12-14T04:29:50.949Z,37.37
2018-12-14T04:32:19.080Z,43.80
2018-12-14T04:34:47.285Z,46.90
2018-12-14T04:37:15.426Z,43.03
2018-12-14T04:39:43.631Z,39.10
2018-12-14T04:42:11.921Z,44.43
2018-12-14T04:44:40.615Z,42.57
2018-12-14T04:47:08.828Z,44.97
2018-12-14T04:49:37.323Z,44.73
2018-12-14T04:52:09.976Z,43.13
2018-12-14T04:54:38.276Z,46.57
2018-12-14T04:57:06.461Z,46.00
2018-12-14T04:59:34.648Z,45.80
2018-12-14T05:02:02.853Z,45.03
2018-12-14T05:04:31.083Z,47.07
2018-12-14T05:06:59.208Z,45.93
2018-12-14T05:09:27.416Z,44.77
2018-12-14T05:11:55.624Z,49.83
2018-12-14T05:14:24.052Z,52.90
2018-12-14T05:16:52.254Z,50.30
2018-12-14T05:19:20.385Z,48.43
2018-12-14T05:21:48.599Z,45.87
2018-12-14T05:24:16.974Z,47.20
2018-12-14T05:26:45.106Z,49.63
2018-12-14T05:29:13.288Z,45.00
2018-12-14T05:31:41.522Z,47.03
2018-12-14T05:34:09.720Z,46.60
2018-12-14T05:36:37.862Z,43.00
2018-12-14T05:39:06.813Z,45.80
2018-12-14T05:41:34.995Z,47.27
2018-12-14T05:44:03.396Z,41.13
2018-12-14T05:46:31.618Z,43.40
2018-12-14T05:48:59.812Z,44.50
2018-12-14T05:51:27.957Z,44.30
2018-12-14T05:53:56.049Z,44.30
2018-12-14T05:56:24.685Z,39.40
2018-12-14T05:58:52.853Z,36.00
2018-12-14T06:01:21.084Z,40.70
2018-12-14T06:03:51.535Z,36.93
2018-12-14T06:06:19.973Z,32.83
2018-12-14T06:08:48.072Z,35.03
2018-12-14T06:11:16.227Z,29.30
2018-12-14T06:13:44.336Z,31.87
2018-12-14T06:16:12.521Z,27.80
2018-12-14T06:18:40.671Z,29.87
2018-12-14T06:21:08.817Z,29.70
2018-12-14T06:23:36.993Z,28.57
2018-12-14T06:26:05.129Z,29.70
2018-12-14T06:28:33.246Z,34.43
2018-12-14T06:31:01.463Z,31.30
2018-12-14T06:33:29.555Z,31.17
2018-12-14T06:35:57.773Z,29.00
2018-12-14T06:38:25.984Z,33.83
2018-12-14T06:40:54.105Z,28.03
2018-12-14T06:43:22.249Z,29.93
2018-12-14T06:45:53.452Z,35.67
2018-12-14T06:48:21.586Z,28.50
2018-12-14T06:50:49.717Z,32.10
2018-12-14T06:53:18.243Z,34.00
2018-12-14T06:55:46.433Z,29.40
2018-12-14T06:58:16.075Z,28.30
2018-12-14T07:00:44.184Z,26.47
2018-12-14T07:03:12.313Z,30.40
2018-12-14T07:05:40.435Z,26.57
2018-12-14T07:08:08.563Z,27.33
2018-12-14T07:10:36.684Z,29.37
2018-12-14T07:13:04.874Z,25.60
2018-12-14T07:15:33.066Z,25.97
2018-12-14T07:18:01.242Z,21.83
2018-12-14T07:20:29.785Z,22.70
2018-12-14T07:22:57.897Z,22.03
2018-12-14T07:25:26.089Z,25.53
2018-12-14T07:27:54.201Z,23.77
2018-12-14T07:30:22.345Z,19.50
2018-12-14T07:32:50.596Z,24.07
2018-12-14T07:35:18.785Z,24.83
2018-12-14T07:37:46.908Z,22.30
2018-12-14T07:40:15.333Z,22.57
2018-12-14T07:42:43.426Z,22.07
2018-12-14T07:45:11.641Z,21.00
2018-12-14T07:47:39.864Z,24.33
2018-12-14T07:50:08.110Z,23.80
2018-12-14T07:52:36.289Z,22.20
2018-12-14T07:55:04.533Z,23.90
2018-12-14T07:57:32.704Z,20.30
2018-12-14T08:00:00.868Z,23.83
2018-12-14T08:02:29.089Z,24.00
2018-12-14T08:04:57.380Z,25.60
2018-12-14T08:07:25.545Z,22.97
2018-12-14T08:09:53.697Z,22.20
2018-12-14T08:12:21.852Z,26.80
2018-12-14T08:14:49.961Z,26.27
2018-12-14T08:17:18.123Z,25.90
2018-12-14T08:19:46.293Z,25.00
2018-12-14T08:22:14.392Z,27.47
2018-12-14T08:24:42.548Z,26.13
2018-12-14T08:27:10.701Z,31.00
2018-12-14T08:29:38.907Z,30.30
2018-12-14T08:32:07.070Z,29.00
2018-12-14T08:34:35.229Z,30.07
2018-12-14T08:37:03.386Z,24.73
2018-12-14T08:39:31.542Z,28.43
2018-12-14T08:41:59.718Z,27.13
2018-12-14T08:44:27.870Z,28.60
2018-12-14T08:46:56.024Z,32.40
2018-12-14T08:49:24.230Z,31.93
2018-12-14T08:51:52.404Z,35.30
2018-12-14T08:54:20.651Z,32.70
2018-12-14T08:56:48.872Z,40.50
2018-12-14T08:59:16.972Z,41.53
2018-12-14T09:01:45.213Z,44.20
2018-12-14T09:04:14.902Z,40.20
2018-12-14T09:06:43.246Z,36.10
2018-12-14T09:09:11.464Z,40.20
2018-12-14T09:11:39.681Z,42.43
2018-12-14T09:14:07.885Z,39.40
2018-12-14T09:16:36.033Z,40.37
2018-12-14T09:19:04.177Z,49.20
2018-12-14T09:21:32.292Z,43.17
2018-12-14T09:24:00.376Z,38.20
2018-12-14T09:26:28.522Z,38.10
2018-12-14T09:28:57.056Z,43.63
2018-12-14T09:31:25.472Z,43.87
2018-12-14T09:33:53.687Z,41.57
2018-12-14T09:36:21.779Z,41.73
2018-12-14T09:38:49.871Z,40.30
2018-12-14T09:41:18.049Z,38.73
2018-12-14T09:43:46.181Z,37.97
2018-12-14T09:46:14.379Z,35.77
2018-12-14T09:48:42.533Z,41.63
2018-12-14T09:51:12.469Z,41.93
2018-12-14T09:53:40.849Z,37.77
2018-12-14T09:56:08.980Z,42.20
2018-12-14T09:58:37.119Z,43.90
2018-12-14T10:01:05.296Z,38.43
2018-12-14T10:03:33.565Z,41.40
2018-12-14T10:06:01.749Z,35.87
2018-12-14T10:08:29.937Z,39.33
2018-12-14T10:10:58.268Z,39.17
2018-12-14T10:13:26.465Z,36.33
2018-12-14T10:15:55.048Z,37.80
2018-12-14T10:18:23.252Z,37.00
2018-12-14T10:20:51.361Z,35.97
2018-12-14T10:23:19.505Z,34.67
2018-12-14T10:25:47.676Z,38.00
2018-12-14T10:28:15.981Z,38.90
2018-12-14T10:30:44.215Z,38.17
2018-12-14T10:33:12.340Z,36.87
2018-12-14T10:35:40.537Z,45.00
2018-12-14T10:38:08.829Z,38.10
2018-12-14T10:40:38.411Z,45.30
2018-12-14T10:43:06.701Z,39.27
2018-12-14T10:45:35.182Z,39.43
2018-12-14T10:48:03.452Z,43.53
2018-12-14T10:50:38.554Z,40.83
2018-12-14T10:53:05.945Z,45.77
2018-12-14T10:55:34.217Z,40.97
2018-12-14T10:58:02.470Z,36.20
2018-12-14T11:00:36.100Z,40.13
2018-12-14T11:03:11.278Z,36.73
2018-12-14T11:05:39.608Z,43.60
2018-12-14T11:08:07.862Z,42.67
2018-12-14T11:10:36.062Z,37.00
2018-12-14T11:13:04.324Z,42.90
2018-12-14T11:15:32.517Z,37.50
2018-12-14T11:18:00.617Z,41.13
2018-12-14T11:20:28.761Z,38.97
2018-12-14T11:22:56.875Z,40.70
2018-12-14T11:25:25.004Z,40.37
2018-12-14T11:27:53.167Z,43.10
2018-12-14T11:30:21.367Z,46.77
2018-12-14T11:32:49.472Z,47.53
2018-12-14T11:35:17.668Z,46.40
2018-12-14T11:37:45.796Z,43.10
2018-12-14T11:40:13.957Z,43.40
2018-12-14T11:42:42.064Z,43.37
2018-12-14T11:45:10.256Z,45.33
2018-12-14T11:47:38.429Z,45.80
2018-12-14T11:50:09.298Z,49.40
2018-12-14T11:52:37.408Z,42.97
2018-12-14T11:55:07.627Z,45.50
2018-12-14T11:57:35.938Z,44.20
2018-12-14T12:00:05.852Z,47.73
2018-12-14T12:02:33.970Z,46.20
2018-12-14T12:05:02.170Z,47.57
2018-12-14T12:07:30.410Z,53.30
2018-12-14T12:12:48.845Z,50.10
2018-12-14T12:15:17.091Z,53.40
2018-12-14T12:17:49.404Z,52.03
2018-12-14T12:20:15.715Z,53.60
2018-12-14T12:22:43.894Z,57.70
2018-12-14T12:25:12.130Z,71.17
2018-12-14T12:27:40.234Z,51.47
2018-12-14T12:30:09.187Z,50.87
2018-12-14T12:32:37.499Z,48.57
2018-12-14T12:35:05.750Z,56.47
2018-12-14T12:37:33.903Z,51.17
2018-12-14T12:40:02.074Z,59.27
2018-12-14T12:42:30.241Z,48.30
2018-12-14T12:44:58.395Z,52.83
2018-12-14T12:47:26.630Z,50.23
2018-12-14T12:49:54.829Z,53.60
2018-12-14T12:52:23.029Z,47.83
2018-12-14T12:54:51.258Z,49.77
2018-12-14T12:57:19.439Z,46.33
2018-12-14T12:59:47.543Z,46.87
2018-12-14T13:02:15.713Z,43.70
2018-12-14T13:04:44.086Z,47.73
2018-12-14T13:07:12.271Z,38.67
2018-12-14T13:09:40.503Z,42.53
2018-12-14T13:12:08.690Z,37.27
2018-12-14T13:14:40.079Z,36.70
2018-12-14T13:17:07.036Z,44.80
2018-12-14T13:19:35.207Z,38.77
2018-12-14T13:22:03.484Z,39.40
2018-12-14T13:24:31.701Z,38.03
2018-12-14T13:26:59.822Z,39.90
2018-12-14T13:29:27.987Z,39.30
2018-12-14T13:31:56.114Z,44.27
2018-12-14T13:34:24.288Z,37.07
2018-12-14T13:36:52.411Z,38.47
2018-12-14T13:39:20.594Z,39.53
2018-12-14T13:41:48.920Z,41.93
2018-12-14T13:44:17.188Z,42.43
2018-12-14T13:46:45.442Z,45.07
2018-12-14T13:49:13.614Z,39.03
2018-12-14T13:51:41.794Z,37.90
2018-12-14T13:54:09.969Z,38.90
2018-12-14T13:56:38.133Z,35.50
2018-12-14T13:59:06.314Z,40.07
2018-12-14T14:01:34.472Z,40.50
2018-12-14T14:04:02.723Z,41.10
2018-12-14T14:06:30.813Z,41.43
2018-12-14T14:08:59.050Z,38.03
2018-12-14T14:11:27.275Z,35.50
2018-12-14T14:13:55.431Z,37.30
2018-12-14T14:16:23.686Z,44.40
2018-12-14T14:18:51.801Z,41.30
2018-12-14T14:21:20.037Z,39.47
2018-12-14T14:23:48.277Z,38.77
2018-12-14T14:26:16.496Z,40.47
2018-12-14T14:28:44.733Z,43.60
2018-12-14T14:31:12.919Z,42.27
2018-12-14T14:33:41.027Z,34.60
2018-12-14T14:36:09.125Z,38.93
2018-12-14T14:38:37.305Z,44.83
2018-12-14T14:41:05.473Z,42.23
2018-12-14T14:43:33.735Z,48.10
2018-12-14T14:46:02.011Z,50.80
2018-12-14T14:48:30.240Z,41.87
2018-12-14T14:50:58.422Z,40.67
2018-12-14T14:53:26.604Z,42.07
2018-12-14T14:55:54.869Z,49.33
2018-12-14T14:58:22.966Z,36.80
2018-12-14T15:00:51.211Z,38.07
2018-12-14T15:03:19.453Z,42.00
2018-12-14T15:05:47.628Z,42.80
2018-12-14T15:08:15.723Z,40.10
2018-12-14T15:10:43.861Z,36.77
2018-12-14T15:13:11.966Z,36.70
2018-12-14T15:15:40.200Z,33.10
2018-12-14T15:18:08.429Z,37.60
2018-12-14T15:20:36.601Z,35.33
2018-12-14T15:23:04.777Z,37.30
2018-12-14T15:25:32.950Z,31.00
2018-12-14T15:28:01.030Z,41.03
2018-12-14T15:30:29.266Z,43.63
2018-12-14T15:32:57.414Z,42.13
2018-12-14T15:35:25.999Z,36.47
2018-12-14T15:37:54.170Z,40.23
2018-12-14T15:40:22.412Z,40.40
2018-12-14T15:42:50.625Z,46.77
2018-12-14T15:45:18.842Z,36.00
2018-12-14T15:47:47.083Z,37.77
2018-12-14T15:50:15.324Z,38.10
2018-12-14T15:52:43.478Z,34.70
2018-12-14T15:55:11.728Z,32.03
2018-12-14T15:57:39.978Z,38.10
2018-12-14T16:00:08.630Z,39.10
2018-12-14T16:02:36.730Z,37.33
2018-12-14T16:05:05.114Z,34.97
2018-12-14T16:07:33.333Z,40.87
2018-12-14T16:10:01.508Z,33.87
2018-12-14T16:12:29.611Z,35.93
2018-12-14T16:14:57.735Z,35.20
2018-12-14T16:17:25.951Z,36.07
2018-12-14T16:19:54.305Z,37.37
2018-12-14T16:22:22.595Z,38.67
2018-12-14T16:24:50.859Z,35.73
2018-12-14T16:27:19.102Z,38.77
2018-12-14T16:29:47.205Z,36.13
2018-12-14T16:32:15.454Z,36.33
2018-12-14T16:34:43.567Z,39.00
2018-12-14T16:37:11.750Z,46.27
2018-12-14T16:39:39.846Z,40.17
2018-12-14T16:42:08.032Z,48.67
2018-12-14T16:44:36.145Z,37.20
2018-12-14T16:47:04.382Z,43.20
2018-12-14T16:49:32.650Z,36.57
2018-12-14T16:52:00.881Z,37.30
2018-12-14T16:54:28.988Z,39.00
2018-12-14T16:56:57.262Z,32.03
2018-12-14T16:59:25.424Z,33.80
2018-12-14T17:01:53.596Z,41.47
2018-12-14T17:04:21.713Z,45.20
2018-12-14T17:06:49.901Z,38.23
2018-12-14T17:09:18.078Z,37.77
2018-12-14T17:11:46.396Z,32.33
2018-12-14T17:14:14.570Z,28.20
2018-12-14T17:16:42.745Z,31.67
2018-12-14T17:19:10.862Z,35.23
2018-12-14T17:21:38.951Z,31.40
2018-12-14T17:24:07.182Z,27.40
2018-12-14T17:26:35.341Z,30.47
2018-12-14T17:29:03.581Z,32.83
2018-12-14T17:31:31.691Z,26.57
2018-12-14T17:33:59.858Z,26.57
2018-12-14T17:36:28.094Z,28.67
2018-12-14T17:38:56.353Z,25.83
2018-12-14T17:41:24.532Z,28.73
2018-12-14T17:43:52.646Z,27.13
2018-12-14T17:46:20.810Z,25.77
2018-12-14T17:48:48.975Z,28.20
2018-12-14T17:51:17.106Z,29.27
2018-12-14T17:53:45.352Z,28.30
2018-12-14T17:56:13.529Z,29.50
2018-12-14T17:58:41.775Z,27.20
2018-12-14T18:01:09.946Z,26.77
2018-12-14T18:03:38.142Z,27.00
2018-12-14T18:06:06.260Z,29.43
2018-12-14T18:08:34.449Z,26.47
2018-12-14T18:11:02.666Z,27.60
2018-12-14T18:13:30.861Z,29.53
2018-12-14T18:15:59.060Z,28.73
2018-12-14T18:18:49.660Z,30.60
2018-12-14T18:21:18.098Z,29.33
2018-12-14T18:23:46.221Z,30.50
2018-12-14T18:26:14.314Z,29.97
2018-12-14T18:28:42.572Z,28.90
2018-12-14T18:31:10.749Z,26.53
2018-12-14T18:33:38.859Z,33.27
2018-12-14T18:36:07.122Z,27.17
2018-12-14T18:38:35.286Z,31.30
2018-12-14T18:41:03.568Z,34.53
2018-12-14T18:43:31.830Z,38.13
2018-12-14T18:46:00.059Z,33.70
2018-12-14T18:48:28.284Z,36.80
2018-12-14T18:50:56.458Z,35.60
2018-12-14T18:53:24.643Z,35.37
2018-12-14T18:55:52.934Z,37.73
2018-12-14T18:58:21.178Z,38.87
2018-12-14T19:00:49.299Z,37.10
2018-12-14T19:03:17.604Z,35.73
2018-12-14T19:05:45.865Z,40.73
2018-12-14T19:08:14.048Z,39.13
2018-12-14T19:10:42.274Z,40.53
2018-12-14T19:13:10.383Z,45.03
2018-12-14T19:15:38.494Z,38.57
2018-12-14T19:18:06.711Z,38.93
2018-12-14T19:20:34.844Z,38.07
2018-12-14T19:23:03.066Z,38.73
2018-12-14T19:25:31.278Z,35.77
2018-12-14T19:27:59.510Z,44.90
2018-12-14T19:30:27.644Z,39.27
2018-12-14T19:32:55.845Z,43.10
2018-12-14T19:35:24.133Z,47.67
2018-12-14T19:37:52.333Z,42.10
2018-12-14T19:40:20.781Z,43.80
2018-12-14T19:42:48.939Z,47.33
2018-12-14T19:45:17.159Z,50.77
2018-12-14T19:47:45.362Z,45.67
2018-12-14T19:50:13.674Z,44.97
2018-12-14T19:52:41.820Z,40.97
2018-12-14T19:55:10.098Z,46.60
2018-12-14T19:57:41.494Z,47.73
2018-12-14T20:00:11.715Z,44.33
2018-12-14T20:02:42.910Z,48.83
2018-12-14T20:05:12.114Z,49.57
2018-12-14T20:07:40.510Z,48.23
2018-12-14T20:10:08.844Z,47.60
2018-12-14T20:12:37.073Z,51.60
2018-12-14T20:15:05.857Z,51.83
2018-12-14T20:17:34.022Z,52.40
2018-12-14T20:20:02.233Z,50.87
2018-12-14T20:22:30.473Z,54.33
2018-12-14T20:24:58.642Z,44.30
2018-12-14T20:27:26.876Z,54.00
2018-12-14T20:29:55.061Z,45.90
2018-12-14T20:32:23.217Z,49.53
2018-12-14T20:34:52.495Z,50.50
2018-12-14T20:37:20.641Z,48.27
2018-12-14T20:39:48.768Z,48.03
2018-12-14T20:42:16.943Z,49.73
2018-12-14T20:44:45.106Z,47.00
2018-12-14T20:47:13.302Z,54.93
2018-12-14T20:49:41.402Z,48.40
2018-12-14T20:52:09.494Z,51.70
2018-12-14T20:54:37.615Z,50.27
2018-12-14T20:57:05.796Z,48.40
2018-12-14T20:59:33.940Z,54.37
2018-12-14T21:02:02.282Z,50.30
2018-12-14T21:04:30.499Z,49.53
2018-12-14T21:06:58.596Z,51.43
2018-12-14T21:09:26.835Z,49.30
2018-12-14T21:11:54.960Z,51.47
2018-12-14T21:14:23.169Z,50.33
2018-12-14T21:16:51.716Z,57.23
2018-12-14T21:19:19.814Z,53.37
2018-12-14T21:21:47.998Z,56.30
2018-12-14T21:24:16.380Z,55.80
2018-12-14T21:26:44.571Z,52.27
2018-12-14T21:29:16.009Z,53.53
2018-12-14T21:31:42.834Z,57.33
2018-12-14T21:34:11.046Z,52.70
2018-12-14T21:36:39.210Z,53.50
2018-12-14T21:39:07.432Z,51.57
2018-12-14T21:41:35.538Z,49.20
2018-12-14T21:44:03.785Z,53.77
2018-12-14T21:46:32.734Z,46.23
2018-12-14T21:49:01.022Z,55.20
2018-12-14T21:51:29.182Z,49.47
2018-12-14T21:53:57.290Z,46.80
2018-12-14T21:56:25.457Z,57.33
2018-12-14T21:58:53.619Z,52.13
2018-12-14T22:01:21.865Z,59.70
2018-12-14T22:03:50.097Z,58.33
2018-12-14T22:06:18.272Z,64.47
2018-12-14T22:08:46.383Z,59.20
2018-12-14T22:11:14.479Z,54.37
2018-12-14T22:13:42.730Z,52.17
2018-12-14T22:16:10.893Z,52.23
2018-12-14T22:18:39.004Z,55.03
2018-12-14T22:21:07.183Z,55.07
2018-12-14T22:23:35.269Z,58.57
2018-12-14T22:26:03.581Z,60.37
2018-12-14T22:28:31.670Z,64.57
2018-12-14T22:30:59.816Z,67.67
2018-12-14T22:33:27.986Z,65.23
2018-12-14T22:35:56.954Z,71.30
2018-12-14T22:38:25.276Z,67.07
2018-12-14T22:40:53.502Z,68.83
2018-12-14T22:43:21.747Z,67.40
2018-12-14T22:48:24.646Z,64.90
2018-12-14T22:50:52.738Z,58.37
2018-12-14T22:53:20.925Z,58.40
2018-12-14T22:55:49.094Z,66.40
2018-12-14T22:58:17.289Z,61.27
2018-12-14T23:00:51.446Z,63.10
2018-12-14T23:03:19.856Z,60.60
2018-12-14T23:05:48.402Z,68.37
2018-12-14T23:08:16.631Z,65.53
2018-12-14T23:10:44.766Z,69.03
2018-12-14T23:13:12.950Z,77.83
2018-12-14T23:15:41.123Z,69.10
2018-12-14T23:18:09.399Z,62.10
2018-12-14T23:20:37.596Z,66.67
2018-12-14T23:23:05.777Z,70.23
2018-12-14T23:25:34.012Z,64.77
2018-12-14T23:28:02.179Z,66.93
2018-12-14T23:30:30.277Z,68.27
2018-12-14T23:32:59.785Z,80.70
2018-12-14T23:35:29.029Z,65.20
2018-12-14T23:37:58.056Z,76.77
2018-12-14T23:40:27.445Z,69.10
2018-12-14T23:42:56.887Z,68.07
2018-12-14T23:45:26.467Z,77.20
2018-12-14T23:47:56.539Z,83.53
2018-12-14T23:50:26.062Z,73.13
2018-12-14T23:52:55.286Z,74.10
2018-12-14T23:55:24.959Z,65.77
2018-12-14T23:57:53.084Z,58.23
